createdAt,value
2023-01-30T00:01:58.632Z,19.70
2023-01-30T00:04:26.595Z,17.50
2023-01-30T00:06:55.899Z,16.40
2023-01-30T00:09:23.807Z,12.95
2023-01-30T00:11:51.725Z,19.27
2023-01-30T00:14:19.909Z,15.25
2023-01-30T00:16:47.930Z,15.65
2023-01-30T00:19:15.863Z,14.55
2023-01-30T00:21:43.775Z,15.27
2023-01-30T00:24:13.344Z,17.50
2023-01-30T00:26:41.338Z,19.10
2023-01-30T00:29:10.638Z,16.15
2023-01-30T00:31:38.534Z,15.45
2023-01-30T00:34:06.468Z,16.92
2023-01-30T00:36:34.380Z,15.60
2023-01-30T00:39:02.240Z,16.55
2023-01-30T00:41:51.552Z,20.88
2023-01-30T00:44:36.976Z,17.38
2023-01-30T00:47:08.970Z,18.15
2023-01-30T00:49:37.524Z,16.58
2023-01-30T00:52:06.231Z,17.55
2023-01-30T00:54:34.257Z,19.20
2023-01-30T00:57:03.499Z,18.90
2023-01-30T00:59:32.475Z,19.60
2023-01-30T01:02:00.560Z,17.60
2023-01-30T01:04:28.723Z,21.40
2023-01-30T01:06:56.741Z,17.52
2023-01-30T01:09:24.721Z,18.75
2023-01-30T01:11:53.830Z,19.90
2023-01-30T01:14:23.056Z,19.25
2023-01-30T01:16:51.109Z,19.83
2023-01-30T01:19:19.078Z,17.88
2023-01-30T01:21:47.304Z,19.35
2023-01-30T01:24:16.888Z,20.60
2023-01-30T01:26:45.859Z,17.45
2023-01-30T01:29:15.155Z,17.27
2023-01-30T01:31:45.691Z,19.92
2023-01-30T01:34:13.723Z,21.05
2023-01-30T01:36:54.373Z,22.17
2023-01-30T01:39:23.484Z,20.08
2023-01-30T01:41:51.077Z,18.73
2023-01-30T01:44:19.217Z,20.48
2023-01-30T01:46:52.272Z,21.75
2023-01-30T01:51:56.464Z,22.27
2023-01-30T01:54:30.686Z,22.83
2023-01-30T01:57:04.339Z,18.55
2023-01-30T01:59:35.946Z,20.65
2023-01-30T02:02:10.332Z,20.88
2023-01-30T02:04:59.241Z,21.75
2023-01-30T02:07:28.701Z,23.13
2023-01-30T02:09:56.828Z,22.20
2023-01-30T02:12:25.823Z,23.20
2023-01-30T02:14:55.809Z,21.92
2023-01-30T02:17:25.886Z,22.60
2023-01-30T02:19:58.967Z,24.60
2023-01-30T02:23:03.271Z,23.63
2023-01-30T02:26:00.800Z,24.15
2023-01-30T02:28:49.673Z,26.80
2023-01-30T02:31:36.941Z,23.42
2023-01-30T02:34:16.803Z,23.85
2023-01-30T02:36:56.194Z,26.10
2023-01-30T02:39:38.638Z,22.60
2023-01-30T02:42:15.746Z,25.10
2023-01-30T02:44:51.910Z,20.98
2023-01-30T02:47:30.551Z,23.48
2023-01-30T02:50:03.419Z,26.55
2023-01-30T02:52:34.009Z,27.70
2023-01-30T02:55:03.026Z,27.55
2023-01-30T02:57:30.893Z,30.20
2023-01-30T03:00:06.003Z,30.00
2023-01-30T03:02:52.452Z,28.33
2023-01-30T03:05:37.955Z,30.48
2023-01-30T03:08:18.258Z,28.63
2023-01-30T03:10:55.870Z,29.48
2023-01-30T03:13:35.437Z,28.25
2023-01-30T03:16:11.366Z,29.10
2023-01-30T03:18:43.120Z,26.42
2023-01-30T03:21:12.784Z,26.15
2023-01-30T03:23:40.725Z,25.23
2023-01-30T03:26:15.427Z,27.60
2023-01-30T03:28:47.486Z,24.80
2023-01-30T03:31:15.962Z,25.48
2023-01-30T03:33:46.058Z,21.58
2023-01-30T03:36:14.467Z,26.38
2023-01-30T03:38:42.841Z,27.98
2023-01-30T03:41:11.778Z,26.08
2023-01-30T03:43:40.555Z,24.75
2023-01-30T03:46:08.513Z,20.67
2023-01-30T03:48:36.488Z,29.52
2023-01-30T03:51:06.319Z,27.80
2023-01-30T03:53:34.680Z,24.27
2023-01-30T03:56:02.669Z,25.33
2023-01-30T03:58:33.392Z,31.67
2023-01-30T04:01:13.819Z,27.55
2023-01-30T04:03:43.228Z,26.45
2023-01-30T04:06:12.559Z,28.00
2023-01-30T04:08:40.809Z,29.77
2023-01-30T04:11:10.821Z,26.20
2023-01-30T04:13:40.493Z,24.77
2023-01-30T04:16:17.491Z,25.20
2023-01-30T04:19:04.291Z,25.98
2023-01-30T04:21:35.715Z,24.58
2023-01-30T04:24:04.053Z,27.65
2023-01-30T04:26:31.969Z,23.55
2023-01-30T04:28:59.916Z,24.00
2023-01-30T04:31:29.887Z,22.50
2023-01-30T04:34:14.051Z,25.95
2023-01-30T04:36:43.401Z,26.45
2023-01-30T04:39:13.068Z,21.08
2023-01-30T04:41:41.934Z,23.33
2023-01-30T04:44:11.938Z,21.88
2023-01-30T04:46:39.822Z,23.95
2023-01-30T04:49:07.877Z,27.92
2023-01-30T04:51:35.873Z,22.40
2023-01-30T04:54:06.627Z,24.10
2023-01-30T04:56:34.860Z,23.90
2023-01-30T04:59:03.229Z,26.17
2023-01-30T05:01:39.047Z,25.85
2023-01-30T05:04:09.095Z,22.65
2023-01-30T05:06:37.700Z,25.48
2023-01-30T05:09:07.360Z,24.70
2023-01-30T05:11:35.633Z,24.13
2023-01-30T05:14:03.842Z,26.02
2023-01-30T05:16:32.343Z,22.85
2023-01-30T05:19:00.330Z,24.25
2023-01-30T05:21:37.504Z,31.90
2023-01-30T05:24:07.965Z,25.05
2023-01-30T05:26:35.917Z,31.05
2023-01-30T05:29:03.817Z,25.90
2023-01-30T05:31:31.694Z,24.55
2023-01-30T05:33:59.595Z,25.60
2023-01-30T05:36:27.499Z,28.92
2023-01-30T05:38:55.519Z,21.73
2023-01-30T05:41:24.733Z,24.30
2023-01-30T05:43:52.787Z,23.20
2023-01-30T05:46:21.090Z,24.05
2023-01-30T05:48:49.283Z,23.52
2023-01-30T05:51:19.661Z,25.27
2023-01-30T05:53:48.071Z,25.90
2023-01-30T05:56:16.470Z,27.10
2023-01-30T05:58:51.809Z,26.92
2023-01-30T06:01:19.950Z,26.15
2023-01-30T06:03:47.920Z,26.00
2023-01-30T06:06:15.950Z,27.65
2023-01-30T06:08:44.161Z,26.13
2023-01-30T06:11:14.941Z,24.85
2023-01-30T06:13:43.104Z,32.35
2023-01-30T06:16:14.630Z,25.40
2023-01-30T06:18:43.072Z,26.73
2023-01-30T06:21:11.323Z,30.30
2023-01-30T06:23:39.721Z,25.52
2023-01-30T06:26:09.196Z,30.23
2023-01-30T06:28:38.181Z,22.80
2023-01-30T06:31:07.884Z,29.33
2023-01-30T06:33:37.389Z,26.08
2023-01-30T06:36:05.857Z,23.98
2023-01-30T06:38:33.764Z,22.60
2023-01-30T06:41:01.700Z,28.85
2023-01-30T06:43:29.615Z,27.27
2023-01-30T06:45:59.849Z,26.75
2023-01-30T06:48:27.959Z,29.65
2023-01-30T06:50:57.521Z,26.13
2023-01-30T06:53:30.378Z,26.42
2023-01-30T06:55:59.120Z,23.92
2023-01-30T06:58:27.497Z,22.00
2023-01-30T07:00:55.445Z,24.65
2023-01-30T07:03:23.612Z,21.30
2023-01-30T07:05:51.525Z,19.67
2023-01-30T07:08:22.579Z,21.20
2023-01-30T07:10:51.893Z,21.47
2023-01-30T07:13:19.779Z,18.20
2023-01-30T07:15:47.796Z,18.25
2023-01-30T07:18:15.651Z,17.88
2023-01-30T07:20:47.214Z,18.50
2023-01-30T07:23:15.205Z,16.33
2023-01-30T07:25:44.618Z,16.92
2023-01-30T07:28:12.496Z,14.30
2023-01-30T07:30:40.482Z,17.92
2023-01-30T07:33:08.576Z,17.50
2023-01-30T07:35:37.955Z,16.73
2023-01-30T07:38:06.314Z,13.63
2023-01-30T07:40:34.430Z,13.30
2023-01-30T07:43:06.080Z,14.23
2023-01-30T07:45:38.233Z,14.40
2023-01-30T07:48:16.888Z,12.43
2023-01-30T07:50:45.354Z,11.90
2023-01-30T07:53:15.543Z,10.65
2023-01-30T07:55:44.005Z,12.23
2023-01-30T07:58:15.299Z,9.52
2023-01-30T08:00:43.197Z,10.88
2023-01-30T08:03:14.006Z,10.10
2023-01-30T08:05:41.999Z,8.88
2023-01-30T08:08:10.116Z,10.90
2023-01-30T08:10:38.061Z,11.88
2023-01-30T08:13:06.067Z,10.48
2023-01-30T08:15:35.340Z,11.45
2023-01-30T08:18:03.232Z,14.57
2023-01-30T08:20:31.171Z,12.13
2023-01-30T08:23:00.122Z,10.45
2023-01-30T08:25:28.345Z,9.80
2023-01-30T08:27:56.700Z,8.68
2023-01-30T08:30:24.836Z,8.82
2023-01-30T08:32:54.122Z,10.18
2023-01-30T08:35:22.170Z,8.88
2023-01-30T08:37:50.071Z,15.88
2023-01-30T08:40:18.443Z,8.40
2023-01-30T08:42:46.914Z,7.82
2023-01-30T08:45:15.432Z,8.90
2023-01-30T08:47:43.548Z,9.77
2023-01-30T08:50:13.169Z,8.07
2023-01-30T08:52:41.101Z,7.47
2023-01-30T08:55:10.430Z,8.68
2023-01-30T08:57:38.480Z,9.90
2023-01-30T09:00:07.589Z,8.02
2023-01-30T09:02:35.586Z,9.63
2023-01-30T09:05:03.507Z,8.52
2023-01-30T09:07:32.867Z,6.88
2023-01-30T09:10:00.920Z,5.97
2023-01-30T09:12:28.821Z,7.00
2023-01-30T09:14:58.606Z,5.32
2023-01-30T09:17:26.642Z,6.72
2023-01-30T09:19:54.676Z,6.00
2023-01-30T09:22:22.605Z,6.93
2023-01-30T09:24:51.961Z,6.63
2023-01-30T09:27:19.915Z,5.47
2023-01-30T09:29:47.816Z,5.70
2023-01-30T09:32:15.700Z,4.93
2023-01-30T09:34:43.671Z,4.63
2023-01-30T09:37:11.594Z,9.65
2023-01-30T09:39:39.486Z,8.02
2023-01-30T09:42:34.493Z,6.75
2023-01-30T09:45:33.835Z,5.68
2023-01-30T09:48:18.243Z,7.07
2023-01-30T09:51:03.167Z,4.60
2023-01-30T09:53:38.060Z,6.00
2023-01-30T09:56:06.896Z,5.47
2023-01-30T09:58:50.113Z,6.70
2023-01-30T10:01:27.446Z,10.23
2023-01-30T10:04:12.191Z,7.57
2023-01-30T10:06:52.625Z,7.75
2023-01-30T10:09:33.017Z,9.52
2023-01-30T10:12:16.250Z,6.68
2023-01-30T10:15:04.823Z,11.60
2023-01-30T10:17:53.838Z,10.60
2023-01-30T10:20:33.063Z,6.20
2023-01-30T10:23:15.230Z,8.00
2023-01-30T10:25:47.452Z,16.02
2023-01-30T10:28:23.720Z,11.07
2023-01-30T10:33:25.896Z,8.68
2023-01-30T10:36:04.677Z,11.07
2023-01-30T10:38:40.964Z,9.25
2023-01-30T10:41:20.142Z,9.60
2023-01-30T10:43:55.812Z,14.90
2023-01-30T10:46:40.864Z,10.68
2023-01-30T10:49:16.980Z,15.57
2023-01-30T10:51:54.892Z,12.60
2023-01-30T10:54:27.890Z,16.52
2023-01-30T10:57:03.199Z,16.25
2023-01-30T10:59:43.234Z,9.02
2023-01-30T11:02:24.416Z,16.02
2023-01-30T11:04:59.341Z,7.30
2023-01-30T11:07:29.440Z,9.45
2023-01-30T11:09:59.316Z,10.98
2023-01-30T11:12:27.390Z,12.25
2023-01-30T11:14:58.675Z,11.02
2023-01-30T11:17:34.743Z,22.48
2023-01-30T11:20:16.510Z,15.43
2023-01-30T11:22:49.926Z,19.58
2023-01-30T11:25:20.986Z,16.88
2023-01-30T11:27:55.026Z,12.60
2023-01-30T11:30:27.769Z,16.92
2023-01-30T11:33:12.906Z,15.25
2023-01-30T11:35:52.426Z,17.98
2023-01-30T11:38:23.995Z,15.63
2023-01-30T11:41:02.222Z,16.60
2023-01-30T11:43:30.681Z,10.13
2023-01-30T11:45:59.661Z,13.50
2023-01-30T11:48:33.485Z,11.27
2023-01-30T11:51:19.466Z,16.77
2023-01-30T11:53:49.984Z,15.18
2023-01-30T11:56:23.966Z,18.42
2023-01-30T11:58:59.047Z,23.35
2023-01-30T12:01:29.515Z,11.82
2023-01-30T12:04:00.251Z,13.63
2023-01-30T12:06:32.237Z,7.45
2023-01-30T12:09:00.802Z,11.50
2023-01-30T12:11:44.848Z,11.93
2023-01-30T12:14:38.845Z,14.38
2023-01-30T12:17:15.821Z,6.97
2023-01-30T12:20:01.307Z,9.52
2023-01-30T12:22:38.877Z,11.95
2023-01-30T12:25:15.679Z,23.48
2023-01-30T12:30:31.430Z,16.35
2023-01-30T12:36:03.213Z,10.60
2023-01-30T12:38:54.503Z,16.10
2023-01-30T12:41:34.851Z,14.90
2023-01-30T12:44:30.456Z,17.73
2023-01-30T12:47:13.004Z,12.82
2023-01-30T12:49:57.284Z,15.63
2023-01-30T12:52:42.823Z,16.60
2023-01-30T12:55:27.873Z,8.43
2023-01-30T12:58:01.715Z,11.70
2023-01-30T13:00:42.239Z,9.68
2023-01-30T13:03:23.787Z,13.10
2023-01-30T13:05:57.996Z,10.10
2023-01-30T13:08:51.208Z,13.18
2023-01-30T13:11:38.286Z,17.17
2023-01-30T13:14:14.156Z,11.50
2023-01-30T13:16:55.993Z,8.40
2023-01-30T13:19:40.317Z,12.45
2023-01-30T13:22:15.324Z,13.30
2023-01-30T13:24:54.337Z,10.13
2023-01-30T13:27:24.482Z,8.73
2023-01-30T13:29:53.859Z,16.92
2023-01-30T13:32:35.741Z,11.10
2023-01-30T13:35:07.440Z,5.25
2023-01-30T13:37:35.677Z,6.75
2023-01-30T13:40:17.516Z,14.05
2023-01-30T13:42:49.869Z,7.82
2023-01-30T13:45:22.159Z,14.70
2023-01-30T13:48:03.944Z,12.15
2023-01-30T13:50:50.107Z,13.30
2023-01-30T13:53:24.305Z,13.07
2023-01-30T13:55:59.384Z,16.33
2023-01-30T13:58:43.831Z,9.80
2023-01-30T14:01:12.537Z,13.02
2023-01-30T14:03:41.243Z,14.48
2023-01-30T14:06:15.347Z,15.93
2023-01-30T14:08:53.468Z,16.73
2023-01-30T14:11:34.437Z,8.85
2023-01-30T14:14:06.346Z,9.60
2023-01-30T14:16:45.901Z,7.07
2023-01-30T14:19:39.110Z,7.93
2023-01-30T14:22:21.350Z,12.27
2023-01-30T14:25:22.656Z,7.90
2023-01-30T14:27:53.093Z,12.38
2023-01-30T14:30:38.610Z,7.63
2023-01-30T14:33:35.389Z,8.93
2023-01-30T14:36:35.723Z,2.88
2023-01-30T14:39:49.405Z,3.85
2023-01-30T14:42:25.523Z,2.08
2023-01-30T14:45:06.699Z,1.95
2023-01-30T14:47:43.110Z,1.05
2023-01-30T14:50:20.782Z,1.98
2023-01-30T14:52:50.591Z,1.08
2023-01-30T14:55:22.235Z,2.53
2023-01-30T14:57:56.771Z,4.47
2023-01-30T15:00:32.159Z,1.85
2023-01-30T15:03:03.050Z,6.00
2023-01-30T15:05:35.073Z,4.65
2023-01-30T15:08:10.974Z,5.93
2023-01-30T15:10:55.450Z,4.05
2023-01-30T15:13:42.605Z,7.43
2023-01-30T15:16:30.568Z,5.22
2023-01-30T15:19:12.234Z,9.77
2023-01-30T15:21:56.398Z,5.38
2023-01-30T15:25:14.784Z,7.00
2023-01-30T15:27:57.572Z,4.63
2023-01-30T15:30:39.933Z,4.43
2023-01-30T15:33:29.176Z,3.55
2023-01-30T15:35:58.785Z,7.70
2023-01-30T15:38:29.859Z,8.52
2023-01-30T15:41:00.849Z,5.05
2023-01-30T15:43:54.873Z,6.88
2023-01-30T15:46:35.007Z,7.95
2023-01-30T15:49:20.727Z,5.20
2023-01-30T15:51:48.961Z,6.50
2023-01-30T15:54:19.822Z,10.88
2023-01-30T15:56:49.926Z,3.28
2023-01-30T15:59:31.698Z,6.53
2023-01-30T16:02:02.198Z,7.35
2023-01-30T16:04:32.078Z,9.93
2023-01-30T16:07:00.987Z,9.98
2023-01-30T16:09:28.964Z,11.75
2023-01-30T16:11:57.066Z,11.88
2023-01-30T16:14:25.125Z,4.72
2023-01-30T16:16:56.167Z,7.65
2023-01-30T16:19:28.696Z,6.47
2023-01-30T16:22:01.890Z,10.27
2023-01-30T16:24:32.708Z,8.73
2023-01-30T16:27:03.515Z,8.32
2023-01-30T16:29:33.652Z,11.07
2023-01-30T16:32:02.115Z,7.43
2023-01-30T16:34:33.455Z,17.90
2023-01-30T16:37:07.792Z,9.13
2023-01-30T16:39:37.423Z,10.90
2023-01-30T16:42:23.506Z,20.65
2023-01-30T16:44:51.491Z,12.25
2023-01-30T16:47:26.065Z,11.85
2023-01-30T16:49:55.830Z,11.57
2023-01-30T16:52:37.074Z,14.00
2023-01-30T16:55:09.507Z,12.25
2023-01-30T16:57:41.780Z,14.53
2023-01-30T17:00:22.539Z,10.23
2023-01-30T17:02:54.369Z,11.98
2023-01-30T17:05:25.185Z,12.27
2023-01-30T17:07:56.738Z,18.90
2023-01-30T17:10:55.944Z,14.75
2023-01-30T17:13:36.637Z,9.77
2023-01-30T17:16:34.859Z,13.85
2023-01-30T17:19:03.330Z,10.60
2023-01-30T17:21:32.704Z,8.98
2023-01-30T17:24:03.974Z,21.58
2023-01-30T17:26:32.757Z,12.45
2023-01-30T17:29:00.749Z,12.07
2023-01-30T17:31:28.677Z,10.68
2023-01-30T17:33:56.642Z,11.70
2023-01-30T17:36:27.830Z,17.67
2023-01-30T17:38:56.205Z,12.55
2023-01-30T17:41:28.513Z,15.82
2023-01-30T17:43:56.517Z,11.33
2023-01-30T17:46:28.333Z,13.80
2023-01-30T17:48:56.515Z,13.45
2023-01-30T17:51:24.435Z,18.58
2023-01-30T17:53:52.382Z,10.52
2023-01-30T17:56:24.175Z,8.45
2023-01-30T17:58:53.461Z,15.55
2023-01-30T18:01:21.519Z,14.18
2023-01-30T18:03:49.639Z,17.88
2023-01-30T18:06:17.655Z,17.30
2023-01-30T18:08:45.554Z,25.00
2023-01-30T18:11:14.892Z,22.77
2023-01-30T18:13:43.857Z,17.75
2023-01-30T18:16:18.446Z,11.23
2023-01-30T18:18:46.496Z,20.55
2023-01-30T18:21:17.524Z,17.92
2023-01-30T18:23:45.432Z,21.95
2023-01-30T18:26:14.306Z,19.45
2023-01-30T18:28:43.933Z,17.55
2023-01-30T18:31:13.475Z,13.95
2023-01-30T18:33:44.562Z,18.30
2023-01-30T18:36:14.672Z,18.40
2023-01-30T18:38:42.747Z,26.02
2023-01-30T18:41:11.894Z,23.77
2023-01-30T18:43:40.226Z,14.32
2023-01-30T18:46:09.994Z,20.30
2023-01-30T18:48:39.743Z,16.73
2023-01-30T18:51:09.844Z,22.98
2023-01-30T18:53:37.846Z,18.88
2023-01-30T18:56:08.635Z,19.15
2023-01-30T18:58:37.556Z,18.30
2023-01-30T19:01:11.210Z,20.95
2023-01-30T19:03:40.762Z,11.82
2023-01-30T19:06:11.616Z,26.98
2023-01-30T19:08:39.864Z,26.73
2023-01-30T19:11:22.525Z,18.67
2023-01-30T19:13:50.434Z,19.53
2023-01-30T19:16:19.102Z,19.90
2023-01-30T19:18:49.594Z,17.73
2023-01-30T19:21:17.757Z,18.98
2023-01-30T19:23:45.673Z,38.47
2023-01-30T19:26:13.654Z,29.30
2023-01-30T19:28:44.606Z,13.75
2023-01-30T19:31:15.311Z,17.23
2023-01-30T19:33:44.012Z,14.52
2023-01-30T19:36:15.865Z,27.60
2023-01-30T19:38:44.826Z,26.90
2023-01-30T19:41:13.835Z,21.85
2023-01-30T19:43:42.468Z,20.20
2023-01-30T19:46:11.909Z,27.45
2023-01-30T19:48:40.474Z,25.38
2023-01-30T19:51:14.974Z,27.65
2023-01-30T19:53:44.302Z,19.05
2023-01-30T19:56:13.393Z,19.70
2023-01-30T19:58:41.732Z,24.55
2023-01-30T20:01:11.755Z,23.33
2023-01-30T20:03:41.048Z,19.17
2023-01-30T20:06:12.873Z,20.98
2023-01-30T20:08:43.071Z,20.45
2023-01-30T20:11:12.056Z,20.60
2023-01-30T20:13:41.658Z,19.80
2023-01-30T20:16:12.552Z,22.83
2023-01-30T20:18:41.954Z,31.52
2023-01-30T20:21:11.361Z,32.13
2023-01-30T20:23:41.236Z,26.63
2023-01-30T20:26:12.700Z,20.92
2023-01-30T20:28:41.195Z,26.67
2023-01-30T20:31:11.709Z,28.90
2023-01-30T20:33:40.336Z,19.25
2023-01-30T20:36:10.323Z,21.73
2023-01-30T20:38:39.839Z,20.48
2023-01-30T20:41:10.140Z,26.10
2023-01-30T20:43:41.380Z,12.85
2023-01-30T20:46:10.820Z,19.27
2023-01-30T20:48:40.509Z,16.55
2023-01-30T20:51:10.260Z,22.30
2023-01-30T20:53:39.614Z,24.13
2023-01-30T20:56:10.591Z,14.15
2023-01-30T20:58:40.694Z,17.10
2023-01-30T21:01:09.790Z,14.20
2023-01-30T21:03:38.311Z,12.73
2023-01-30T21:06:06.793Z,18.15
2023-01-30T21:08:35.463Z,16.88
2023-01-30T21:11:08.977Z,20.80
2023-01-30T21:13:38.289Z,14.48
2023-01-30T21:16:11.582Z,18.85
2023-01-30T21:21:09.619Z,25.65
2023-01-30T21:23:37.938Z,16.30
2023-01-30T21:26:07.957Z,18.60
2023-01-30T21:28:36.939Z,21.35
2023-01-30T21:31:08.457Z,14.27
2023-01-30T21:33:36.699Z,15.02
2023-01-30T21:36:05.700Z,13.07
2023-01-30T21:38:50.961Z,8.68
2023-01-30T21:41:39.007Z,16.13
2023-01-30T21:44:07.649Z,7.30
2023-01-30T21:46:40.392Z,10.02
2023-01-30T21:49:08.530Z,16.65
2023-01-30T21:51:37.715Z,9.43
2023-01-30T21:54:05.853Z,13.40
2023-01-30T21:56:34.283Z,15.50
2023-01-30T21:59:04.174Z,16.80
2023-01-30T22:01:33.104Z,13.52
2023-01-30T22:04:03.432Z,12.55
2023-01-30T22:06:31.314Z,12.90
2023-01-30T22:09:01.326Z,16.40
2023-01-30T22:11:30.147Z,8.30
2023-01-30T22:13:58.802Z,17.08
2023-01-30T22:16:29.638Z,15.50
2023-01-30T22:18:59.278Z,14.63
2023-01-30T22:21:31.607Z,13.98
2023-01-30T22:23:59.767Z,21.58
2023-01-30T22:26:27.989Z,22.38
2023-01-30T22:28:56.687Z,15.10
2023-01-30T22:31:26.432Z,12.02
2023-01-30T22:33:56.495Z,18.25
2023-01-30T22:36:26.345Z,16.10
2023-01-30T22:38:56.042Z,20.85
2023-01-30T22:41:25.962Z,30.85
2023-01-30T22:43:55.788Z,16.95
2023-01-30T22:46:26.001Z,13.13
2023-01-30T22:48:54.290Z,14.25
2023-01-30T22:51:24.278Z,20.17
2023-01-30T22:53:54.074Z,12.98
2023-01-30T22:56:24.767Z,20.25
2023-01-30T22:58:53.316Z,16.13
2023-01-30T23:01:22.671Z,15.68
2023-01-30T23:03:54.653Z,26.15
2023-01-30T23:06:23.028Z,21.35
2023-01-30T23:08:51.494Z,21.65
2023-01-30T23:11:22.087Z,23.83
2023-01-30T23:13:55.445Z,17.65
2023-01-30T23:16:25.360Z,18.75
2023-01-30T23:18:55.475Z,22.02
2023-01-30T23:21:24.774Z,18.35
2023-01-30T23:23:53.975Z,20.13
2023-01-30T23:26:22.958Z,20.02
2023-01-30T23:28:52.514Z,20.17
2023-01-30T23:31:22.387Z,12.18
2023-01-30T23:33:54.605Z,17.02
2023-01-30T23:36:23.068Z,22.13
2023-01-30T23:38:51.910Z,14.43
2023-01-30T23:41:22.417Z,16.95
2023-01-30T23:43:50.918Z,22.75
2023-01-30T23:46:22.694Z,24.17
2023-01-30T23:48:53.311Z,21.98
2023-01-30T23:51:23.500Z,20.92
2023-01-30T23:53:52.440Z,21.95
2023-01-30T23:56:21.725Z,26.33
2023-01-30T23:58:50.355Z,24.30
